Mahavelona, Madagascar
Current Conditions -  °F | °C
As of 7:00 PM on Sunday 23 Nov 2014 (Local Time) from FMMT Reporting Station
Scattered Clouds Scattered Clouds  
Wind Chill: 82°   Ceiling: Unl
Heat Index: 88°   Visibility: 6mi
Dew Point: 73°   Wind: 7mph
Humidity: 74%   Direction: 180°S
Pressure: 29.97"   Gusts: NA
Location:  17.68°S, 49.52°E
Report Text: FMMT 231600Z 18006KT 9999 SCT017 SCT100 28/23 Q1015 NOSIG
Loading
Personal Weather Stations






























Interactive Weather Map New forecast layout! Learn more

10-Day Weather Forecast

Advertisements
Track Severe Weather on mobile